Portada
METAR-TAF:

METAR-TAF

Aeroports :

Saint-Pierre, Saint-Pierre i Miquelon

latitud: 46-46N, longitud: 056-10W, altitud: 3 m

Observació

L'informe es va fer fa 17 minuts, a les 22:00 UTC
Vent 18 kt del Oest/Sud-Oest
Temperatura 0°C
Humitat 86%
Pressió 1004 hPa
Visibilitat 10 km o més
Núvols disperses a una alçada de 1600 ft

METAR: LFVP 282200Z 25018KT 9999 SCT016 M00/M02 Q1004 NOSIG

Hora: 19:17 (22:17 UTC)

Pronòstic

L'informe es va fer fa 5 hores i 17 minuts, a les 17:00 UTC
Pronòstic vàlid del 28 a les 18 UTC al 29 a les 03 UTC
Vent 20 kt del Oest/Sud-Oest amb ràfegues de 30 kt
Visibilitat 10 km o més
Núvols disperses a una alçada de 3000 ft

TAF: LFVP 281700Z 2818/2903 24020G30KT 9999 SCT030

Observacions i pronòstics meteorològics de més de 4000 aeroports (METAR i TAF).

Les estacions disponibles són els punts grocs i vermells al mapa.

Posi el ratolí al punt desitjat per veure el nom de l'estació.

Feu clic per veure les observacions i els pronòstics meteorològics.

Per canviar el mapa: feu clic els botons verds amb una creu de color negre per apropar; al botó verd amb un guió per allunyar la imatge; o en les fletxes verdes per a mapes adjacents.


METAR-TAF: